createdAt,value
2018-07-24T17:04:01.323Z,39.80
2018-07-24T17:06:29.479Z,39.30
2018-07-24T17:08:57.652Z,39.80
2018-07-24T17:11:25.799Z,39.90
2018-07-24T17:13:54.064Z,39.30
2018-07-24T17:16:25.359Z,38.90
2018-07-24T17:18:53.555Z,38.10
2018-07-24T17:21:25.070Z,37.70
2018-07-24T17:23:53.367Z,38.10
2018-07-24T17:26:25.211Z,37.90
2018-07-24T17:28:53.387Z,38.40
2018-07-24T17:31:21.590Z,37.80
2018-07-24T17:33:49.819Z,38.60
2018-07-24T17:36:21.093Z,38.80
2018-07-24T17:38:49.335Z,38.10
2018-07-24T17:41:17.643Z,38.60
2018-07-24T17:43:45.906Z,38.80
2018-07-24T17:46:14.137Z,38.50
2018-07-24T17:48:42.362Z,38.80
2018-07-24T17:51:20.238Z,40.10
2018-07-24T17:53:48.503Z,39.30
2018-07-24T17:56:16.674Z,40.00
2018-07-24T17:58:48.002Z,40.00
2018-07-24T18:01:16.242Z,40.60
2018-07-24T18:03:44.460Z,41.00
2018-07-24T18:06:12.659Z,41.20
2018-07-24T18:08:40.913Z,41.60
2018-07-24T18:11:09.110Z,41.60
2018-07-24T18:13:37.354Z,41.90
2018-07-24T18:16:05.563Z,42.30
2018-07-24T18:18:33.784Z,42.70
2018-07-24T18:21:01.981Z,42.90
2018-07-24T18:23:30.217Z,43.40
2018-07-24T18:25:58.442Z,44.20
2018-07-24T18:28:26.669Z,44.30
2018-07-24T18:30:54.910Z,44.90
2018-07-24T18:33:23.143Z,45.10
2018-07-24T18:35:51.330Z,46.30
2018-07-24T18:38:19.555Z,46.30
2018-07-24T18:40:47.787Z,46.30
2018-07-24T18:43:16.013Z,47.60
2018-07-24T18:45:44.252Z,48.20
2018-07-24T18:48:12.471Z,48.50
2018-07-24T18:50:40.737Z,49.70
2018-07-24T18:53:08.967Z,49.80
2018-07-24T18:55:37.192Z,50.50
2018-07-24T18:58:05.713Z,50.70
2018-07-24T19:00:34.315Z,50.90
2018-07-24T19:03:02.639Z,52.30
2018-07-24T19:05:30.874Z,52.80
2018-07-24T19:07:59.075Z,53.10
2018-07-24T19:10:27.284Z,53.30
2018-07-24T19:12:55.461Z,53.20
2018-07-24T19:15:24.070Z,53.60
2018-07-24T19:17:52.257Z,54.40
2018-07-24T19:22:48.367Z,54.90
2018-07-24T19:25:16.530Z,55.90
2018-07-24T19:27:44.677Z,56.20
2018-07-24T19:30:12.842Z,56.50
2018-07-24T19:32:41.029Z,56.50
2018-07-24T19:35:09.257Z,56.60
2018-07-24T19:37:40.944Z,57.30
2018-07-24T19:40:09.153Z,57.30
2018-07-24T19:42:37.297Z,57.70
2018-07-24T19:45:05.655Z,58.30
2018-07-24T19:47:33.817Z,58.70
2018-07-24T19:50:02.006Z,57.90
2018-07-24T19:52:30.179Z,58.00
2018-07-24T19:54:58.337Z,58.40
2018-07-24T19:57:26.469Z,58.40
2018-07-24T19:59:54.634Z,58.60
2018-07-24T20:02:22.802Z,58.80
2018-07-24T20:04:50.957Z,58.80
2018-07-24T20:07:19.127Z,59.20
2018-07-24T20:09:49.727Z,59.30
2018-07-24T20:12:18.082Z,59.60
2018-07-24T20:14:46.258Z,59.70
2018-07-24T20:17:14.429Z,59.60
2018-07-24T20:19:42.591Z,59.50
2018-07-24T20:22:10.774Z,59.50
2018-07-24T20:24:38.998Z,60.20
2018-07-24T20:32:03.092Z,61.40
2018-07-24T20:34:31.389Z,62.30
2018-07-24T20:36:59.562Z,62.00
2018-07-24T20:48:03.645Z,63.30
2018-07-24T20:54:23.193Z,63.00
2018-07-24T20:59:25.777Z,63.50
2018-07-24T21:02:06.864Z,63.40
2018-07-24T21:04:41.053Z,63.60
2018-07-24T21:07:24.394Z,64.60
2018-07-24T21:10:13.572Z,64.60
2018-07-24T21:12:47.750Z,64.60
2018-07-24T21:15:30.026Z,64.60
2018-07-24T21:18:01.895Z,65.00
2018-07-24T21:25:54.973Z,66.40
2018-07-24T21:28:41.104Z,66.20
2018-07-24T21:31:32.678Z,66.60
2018-07-24T21:44:12.722Z,66.90
2018-07-24T21:46:53.575Z,67.00
2018-07-24T21:49:22.163Z,66.90
2018-07-24T21:51:56.518Z,67.20
2018-07-24T21:54:25.320Z,67.20
2018-07-24T21:59:41.062Z,67.60
2018-07-24T22:02:11.456Z,68.10
2018-07-24T22:07:12.060Z,68.50
2018-07-24T22:12:17.922Z,68.80
2018-07-24T22:14:47.127Z,68.80
2018-07-24T22:17:15.482Z,69.10
2018-07-24T22:19:47.014Z,69.20
2018-07-24T22:22:15.402Z,69.60
2018-07-24T22:24:50.162Z,68.60
2018-07-24T22:27:23.238Z,69.40
2018-07-24T22:29:52.310Z,69.60
2018-07-24T22:32:22.784Z,69.50
2018-07-24T22:34:56.203Z,69.60
2018-07-24T22:39:57.312Z,69.80
2018-07-24T22:42:32.339Z,69.80
2018-07-24T22:47:30.806Z,70.70
2018-07-24T22:52:27.329Z,70.50
2018-07-24T22:57:24.785Z,71.50
2018-07-24T23:02:24.963Z,71.40
2018-07-24T23:04:53.322Z,71.70
2018-07-24T23:09:53.761Z,70.70
2018-07-24T23:12:22.123Z,70.80
2018-07-24T23:15:00.366Z,70.90
2018-07-24T23:17:37.214Z,71.10
2018-07-24T23:20:08.351Z,71.30
2018-07-24T23:22:46.394Z,71.80
2018-07-24T23:25:16.264Z,71.00
2018-07-24T23:27:53.187Z,70.80
2018-07-24T23:30:27.801Z,71.30
2018-07-24T23:33:06.630Z,71.20
2018-07-24T23:35:44.973Z,72.10
2018-07-24T23:38:21.328Z,72.10
2018-07-24T23:40:50.199Z,72.70
2018-07-24T23:43:18.483Z,73.30
2018-07-24T23:48:16.495Z,73.10
2018-07-24T23:50:45.570Z,72.90
2018-07-24T23:55:41.966Z,73.00
2018-07-24T23:58:12.325Z,73.20
